sensor_id;sensor_type;location;lat;lon;timestamp;pressure;altitude;pressure_sealevel;temperature;humidity
55757;BME280;41676;44.610;44.078;2024-01-10T00:02:30;101242.09;;;-9.98;92.77
55757;BME280;41676;44.610;44.078;2024-01-10T00:07:30;101236.19;;;-10.09;92.41
55757;BME280;41676;44.610;44.078;2024-01-10T00:12:31;101171.69;;;-10.64;92.62
55757;BME280;41676;44.610;44.078;2024-01-10T00:17:36;101217.66;;;-10.38;92.37
55757;BME280;41676;44.610;44.078;2024-01-10T00:22:37;101224.66;;;-10.57;92.24
55757;BME280;41676;44.610;44.078;2024-01-10T00:27:37;101218.91;;;-10.85;91.67
55757;BME280;41676;44.610;44.078;2024-01-10T00:32:38;101195.75;;;-10.80;92.28
55757;BME280;41676;44.610;44.078;2024-01-10T00:37:39;101197.34;;;-10.64;93.33
55757;BME280;41676;44.610;44.078;2024-01-10T00:42:39;101190.56;;;-10.69;92.82
55757;BME280;41676;44.610;44.078;2024-01-10T00:47:40;101178.50;;;-10.63;92.60
55757;BME280;41676;44.610;44.078;2024-01-10T00:52:41;101148.63;;;-10.70;92.53
55757;BME280;41676;44.610;44.078;2024-01-10T00:57:42;101129.25;;;-11.05;91.48
55757;BME280;41676;44.610;44.078;2024-01-10T01:02:42;101144.59;;;-10.98;91.80
55757;BME280;41676;44.610;44.078;2024-01-10T01:07:43;101124.13;;;-11.08;91.76
55757;BME280;41676;44.610;44.078;2024-01-10T01:12:44;101071.44;;;-11.47;91.69
55757;BME280;41676;44.610;44.078;2024-01-10T01:17:44;101118.97;;;-11.01;91.97
55757;BME280;41676;44.610;44.078;2024-01-10T01:22:45;101110.34;;;-10.96;92.01
55757;BME280;41676;44.610;44.078;2024-01-10T01:27:46;101110.38;;;-10.97;92.06
55757;BME280;41676;44.610;44.078;2024-01-10T01:32:46;101098.47;;;-11.03;92.10
55757;BME280;41676;44.610;44.078;2024-01-10T01:37:48;101099.34;;;-11.06;91.55
55757;BME280;41676;44.610;44.078;2024-01-10T01:42:49;100981.22;;;-11.87;90.84
55757;BME280;41676;44.610;44.078;2024-01-10T01:47:50;101034.91;;;-11.72;90.36
55757;BME280;41676;44.610;44.078;2024-01-10T01:52:50;101077.31;;;-11.34;91.60
55757;BME280;41676;44.610;44.078;2024-01-10T01:57:51;101004.09;;;-11.67;91.41
55757;BME280;41676;44.610;44.078;2024-01-10T02:02:52;101052.56;;;-11.35;91.39
55757;BME280;41676;44.610;44.078;2024-01-10T02:07:53;101006.69;;;-11.72;90.92
55757;BME280;41676;44.610;44.078;2024-01-10T02:12:55;101040.66;;;-11.42;91.07
55757;BME280;41676;44.610;44.078;2024-01-10T02:17:56;101055.13;;;-11.37;91.61
55757;BME280;41676;44.610;44.078;2024-01-10T02:22:57;101049.16;;;-11.40;91.28
55757;BME280;41676;44.610;44.078;2024-01-10T02:27:58;101046.59;;;-11.40;91.28
55757;BME280;41676;44.610;44.078;2024-01-10T02:32:58;101039.72;;;-11.37;90.75
55757;BME280;41676;44.610;44.078;2024-01-10T02:37:59;101038.16;;;-11.53;90.51
55757;BME280;41676;44.610;44.078;2024-01-10T02:43:00;100964.94;;;-11.85;90.75
55757;BME280;41676;44.610;44.078;2024-01-10T02:48:01;101020.25;;;-11.58;90.67
55757;BME280;41676;44.610;44.078;2024-01-10T02:53:02;101019.31;;;-11.47;90.61
55757;BME280;41676;44.610;44.078;2024-01-10T02:58:03;101029.53;;;-11.41;90.92
55757;BME280;41676;44.610;44.078;2024-01-10T03:03:04;100990.34;;;-11.59;91.05
55757;BME280;41676;44.610;44.078;2024-01-10T03:08:05;100947.84;;;-11.83;90.67
55757;BME280;41676;44.610;44.078;2024-01-10T03:13:07;100913.91;;;-12.08;90.50
55757;BME280;41676;44.610;44.078;2024-01-10T03:18:07;101006.44;;;-11.41;90.68
55757;BME280;41676;44.610;44.078;2024-01-10T03:23:08;101001.31;;;-11.41;90.75
55757;BME280;41676;44.610;44.078;2024-01-10T03:28:09;100990.31;;;-11.51;90.08
55757;BME280;41676;44.610;44.078;2024-01-10T03:33:09;100929.84;;;-11.77;90.25
55757;BME280;41676;44.610;44.078;2024-01-10T03:38:10;100968.00;;;-11.41;90.54
55757;BME280;41676;44.610;44.078;2024-01-10T03:43:11;100964.56;;;-11.43;90.72
55757;BME280;41676;44.610;44.078;2024-01-10T03:48:12;100955.22;;;-11.47;90.46
55757;BME280;41676;44.610;44.078;2024-01-10T03:53:13;100962.16;;;-11.59;89.79
55757;BME280;41676;44.610;44.078;2024-01-10T03:58:14;100970.66;;;-11.54;89.72
55757;BME280;41676;44.610;44.078;2024-01-10T04:03:15;100955.53;;;-11.81;88.88
55757;BME280;41676;44.610;44.078;2024-01-10T04:08:16;100961.50;;;-11.84;89.34
55757;BME280;41676;44.610;44.078;2024-01-10T04:13:18;100960.81;;;-12.03;89.35
55757;BME280;41676;44.610;44.078;2024-01-10T04:18:18;100917.50;;;-12.32;89.30
55757;BME280;41676;44.610;44.078;2024-01-10T04:23:19;100947.38;;;-12.38;88.47
55757;BME280;41676;44.610;44.078;2024-01-10T04:28:20;100965.31;;;-12.37;88.53
55757;BME280;41676;44.610;44.078;2024-01-10T04:33:21;100926.09;;;-12.42;89.38
55757;BME280;41676;44.610;44.078;2024-01-10T04:38:21;100887.91;;;-12.76;88.79
55757;BME280;41676;44.610;44.078;2024-01-10T04:43:26;100955.94;;;-12.35;88.97
55757;BME280;41676;44.610;44.078;2024-01-10T04:48:27;100947.38;;;-12.38;89.03
55757;BME280;41676;44.610;44.078;2024-01-10T04:53:28;100953.31;;;-12.29;89.04
55757;BME280;41676;44.610;44.078;2024-01-10T04:58:29;100943.00;;;-12.16;89.50
55757;BME280;41676;44.610;44.078;2024-01-10T05:03:30;100941.31;;;-12.21;89.03
55757;BME280;41676;44.610;44.078;2024-01-10T05:08:31;100913.09;;;-12.13;89.34
55757;BME280;41676;44.610;44.078;2024-01-10T05:13:32;100883.28;;;-12.20;89.10
55757;BME280;41676;44.610;44.078;2024-01-10T05:18:34;100915.88;;;-11.46;89.60
55757;BME280;41676;44.610;44.078;2024-01-10T05:23:35;100863.03;;;-11.57;89.18
55757;BME280;41676;44.610;44.078;2024-01-10T05:28:36;100899.13;;;-11.01;89.13
55757;BME280;41676;44.610;44.078;2024-01-10T05:33:36;100891.94;;;-10.71;89.27
55757;BME280;41676;44.610;44.078;2024-01-10T05:38:38;100897.47;;;-10.39;88.87
55757;BME280;41676;44.610;44.078;2024-01-10T05:43:39;100880.75;;;-10.10;89.29
55757;BME280;41676;44.610;44.078;2024-01-10T05:48:40;100880.78;;;-9.62;88.83
55757;BME280;41676;44.610;44.078;2024-01-10T05:53:41;100883.75;;;-9.37;88.35
55757;BME280;41676;44.610;44.078;2024-01-10T05:58:42;100871.34;;;-9.15;88.36
55757;BME280;41676;44.610;44.078;2024-01-10T06:03:42;100867.22;;;-8.83;88.42
55757;BME280;41676;44.610;44.078;2024-01-10T06:08:43;100846.00;;;-8.56;89.33
55757;BME280;41676;44.610;44.078;2024-01-10T06:13:44;100864.16;;;-8.24;88.59
55757;BME280;41676;44.610;44.078;2024-01-10T06:18:45;100867.13;;;-8.04;88.56
55757;BME280;41676;44.610;44.078;2024-01-10T06:23:46;100851.13;;;-7.83;88.33
55757;BME280;41676;44.610;44.078;2024-01-10T06:28:47;100815.13;;;-7.87;87.97
55757;BME280;41676;44.610;44.078;2024-01-10T06:33:48;100847.28;;;-7.35;88.22
55757;BME280;41676;44.610;44.078;2024-01-10T06:38:49;100836.97;;;-7.05;87.72
55757;BME280;41676;44.610;44.078;2024-01-10T06:43:51;100783.69;;;-7.08;87.59
55757;BME280;41676;44.610;44.078;2024-01-10T06:48:52;100829.59;;;-6.60;87.52
55757;BME280;41676;44.610;44.078;2024-01-10T06:53:53;100825.84;;;-6.23;87.29
55757;BME280;41676;44.610;44.078;2024-01-10T06:59:01;100804.22;;;-5.95;86.96
55757;BME280;41676;44.610;44.078;2024-01-10T07:04:02;100801.09;;;-5.80;87.10
55757;BME280;41676;44.610;44.078;2024-01-10T07:09:05;100781.31;;;-5.58;86.08
55757;BME280;41676;44.610;44.078;2024-01-10T07:14:06;100745.72;;;-5.51;85.93
55757;BME280;41676;44.610;44.078;2024-01-10T07:19:07;100730.66;;;-5.18;85.14
55757;BME280;41676;44.610;44.078;2024-01-10T07:24:08;100771.91;;;-4.90;83.95
55757;BME280;41676;44.610;44.078;2024-01-10T07:29:12;100762.13;;;-4.83;83.86
55757;BME280;41676;44.610;44.078;2024-01-10T07:34:13;100776.53;;;-4.76;83.61
55757;BME280;41676;44.610;44.078;2024-01-10T07:39:14;100783.03;;;-5.10;82.95
55757;BME280;41676;44.610;44.078;2024-01-10T07:44:18;100776.31;;;-5.39;82.86
55757;BME280;41676;44.610;44.078;2024-01-10T07:49:19;100772.41;;;-5.03;84.17
55757;BME280;41676;44.610;44.078;2024-01-10T07:54:22;100743.63;;;-4.74;83.22
55757;BME280;41676;44.610;44.078;2024-01-10T07:59:23;100723.94;;;-4.78;81.77
55757;BME280;41676;44.610;44.078;2024-01-10T08:04:25;100737.06;;;-4.61;81.86
55757;BME280;41676;44.610;44.078;2024-01-10T08:09:26;100722.31;;;-4.38;81.80
55757;BME280;41676;44.610;44.078;2024-01-10T08:14:27;100725.63;;;-4.14;82.17
55757;BME280;41676;44.610;44.078;2024-01-10T08:19:28;100617.91;;;-4.43;81.82
55757;BME280;41676;44.610;44.078;2024-01-10T08:24:28;100702.78;;;-3.67;82.05
55757;BME280;41676;44.610;44.078;2024-01-10T08:29:29;100640.91;;;-3.76;81.71
55757;BME280;41676;44.610;44.078;2024-01-10T08:34:31;100672.38;;;-3.27;82.13
55757;BME280;41676;44.610;44.078;2024-01-10T08:39:32;100675.28;;;-3.14;81.17
55757;BME280;41676;44.610;44.078;2024-01-10T08:44:33;100660.13;;;-3.06;81.82
55757;BME280;41676;44.610;44.078;2024-01-10T08:49:34;100645.34;;;-2.86;81.63
55757;BME280;41676;44.610;44.078;2024-01-10T08:54:35;100621.72;;;-2.82;81.67
55757;BME280;41676;44.610;44.078;2024-01-10T08:59:36;100633.56;;;-2.76;82.49
55757;BME280;41676;44.610;44.078;2024-01-10T09:04:37;100565.75;;;-3.06;83.22
55757;BME280;41676;44.610;44.078;2024-01-10T09:09:37;100579.53;;;-2.87;83.49
55757;BME280;41676;44.610;44.078;2024-01-10T09:14:38;100537.94;;;-3.04;84.18
55757;BME280;41676;44.610;44.078;2024-01-10T09:19:39;100541.75;;;-3.29;84.50
55757;BME280;41676;44.610;44.078;2024-01-10T09:24:39;100564.22;;;-3.10;85.50
55757;BME280;41676;44.610;44.078;2024-01-10T09:29:40;100556.56;;;-2.79;86.03
55757;BME280;41676;44.610;44.078;2024-01-10T09:34:41;100520.63;;;-2.88;85.75
55757;BME280;41676;44.610;44.078;2024-01-10T09:39:42;100524.69;;;-2.82;86.46
55757;BME280;41676;44.610;44.078;2024-01-10T09:44:43;100531.81;;;-2.86;86.82
55757;BME280;41676;44.610;44.078;2024-01-10T09:49:44;100518.66;;;-2.83;87.08
55757;BME280;41676;44.610;44.078;2024-01-10T09:54:47;100513.28;;;-2.80;87.39
55757;BME280;41676;44.610;44.078;2024-01-10T09:59:52;100467.16;;;-3.27;86.82
55757;BME280;41676;44.610;44.078;2024-01-10T10:05:02;100506.22;;;-3.28;87.92
55757;BME280;41676;44.610;44.078;2024-01-10T10:10:05;100493.00;;;-3.41;88.42
55757;BME280;41676;44.610;44.078;2024-01-10T10:15:18;100467.94;;;-3.25;89.12
55757;BME280;41676;44.610;44.078;2024-01-10T10:20:29;100489.19;;;-3.16;88.94
55757;BME280;41676;44.610;44.078;2024-01-10T10:25:45;100441.94;;;-3.07;88.97
55757;BME280;41676;44.610;44.078;2024-01-10T10:30:47;100419.03;;;-3.16;89.07
55757;BME280;41676;44.610;44.078;2024-01-10T10:35:49;100476.13;;;-2.82;88.83
55757;BME280;41676;44.610;44.078;2024-01-10T10:40:51;100460.41;;;-2.63;89.68
55757;BME280;41676;44.610;44.078;2024-01-10T10:45:51;100408.19;;;-2.76;88.93
55757;BME280;41676;44.610;44.078;2024-01-10T10:51:07;100446.53;;;-2.30;89.07
55757;BME280;41676;44.610;44.078;2024-01-10T10:56:09;100445.84;;;-2.34;88.86
55757;BME280;41676;44.610;44.078;2024-01-10T11:01:12;100457.44;;;-2.23;89.79
55757;BME280;41676;44.610;44.078;2024-01-10T11:06:14;100467.00;;;-2.08;89.66
55757;BME280;41676;44.610;44.078;2024-01-10T11:17:37;100460.88;;;-2.07;88.95
55757;BME280;41676;44.610;44.078;2024-01-10T11:22:47;100454.22;;;-1.81;88.78
55757;BME280;41676;44.610;44.078;2024-01-10T11:27:53;100453.78;;;-1.73;88.55
55757;BME280;41676;44.610;44.078;2024-01-10T11:32:56;100438.81;;;-1.70;88.15
55757;BME280;41676;44.610;44.078;2024-01-10T11:37:59;100442.75;;;-1.63;87.80
55757;BME280;41676;44.610;44.078;2024-01-10T11:43:00;100450.97;;;-1.54;87.83
55757;BME280;41676;44.610;44.078;2024-01-10T11:48:01;100457.84;;;-1.53;87.30
55757;BME280;41676;44.610;44.078;2024-01-10T11:53:01;100448.44;;;-1.56;86.82
55757;BME280;41676;44.610;44.078;2024-01-10T11:58:08;100450.03;;;-1.53;86.10
55757;BME280;41676;44.610;44.078;2024-01-10T12:03:11;100414.38;;;-1.67;86.95
55757;BME280;41676;44.610;44.078;2024-01-10T12:08:13;100440.28;;;-1.50;85.69
55757;BME280;41676;44.610;44.078;2024-01-10T12:13:14;100460.25;;;-1.34;85.50
55757;BME280;41676;44.610;44.078;2024-01-10T12:18:15;100445.34;;;-1.32;86.37
55757;BME280;41676;44.610;44.078;2024-01-10T12:23:16;100444.97;;;-1.26;85.49
55757;BME280;41676;44.610;44.078;2024-01-10T12:28:17;100451.13;;;-1.27;85.64
55757;BME280;41676;44.610;44.078;2024-01-10T12:33:22;100464.00;;;-1.24;84.83
55757;BME280;41676;44.610;44.078;2024-01-10T12:38:23;100474.31;;;-1.23;84.74
55757;BME280;41676;44.610;44.078;2024-01-10T12:43:27;100455.41;;;-1.26;84.52
55757;BME280;41676;44.610;44.078;2024-01-10T12:48:27;100376.34;;;-1.86;84.82
55757;BME280;41676;44.610;44.078;2024-01-10T12:53:28;100468.25;;;-1.38;85.40
55757;BME280;41676;44.610;44.078;2024-01-10T12:58:29;100451.63;;;-1.51;85.71
55757;BME280;41676;44.610;44.078;2024-01-10T13:03:30;100449.63;;;-1.62;85.62
55757;BME280;41676;44.610;44.078;2024-01-10T13:08:31;100455.53;;;-1.58;85.89
55757;BME280;41676;44.610;44.078;2024-01-10T13:13:32;100458.88;;;-1.56;87.01
55757;BME280;41676;44.610;44.078;2024-01-10T13:18:33;100443.50;;;-1.61;86.64
55757;BME280;41676;44.610;44.078;2024-01-10T13:23:34;100397.69;;;-1.95;86.32
55757;BME280;41676;44.610;44.078;2024-01-10T13:28:35;100423.66;;;-1.93;86.49
55757;BME280;41676;44.610;44.078;2024-01-10T13:33:36;100476.72;;;-1.80;86.15
55757;BME280;41676;44.610;44.078;2024-01-10T13:38:37;100450.03;;;-1.99;86.05
55757;BME280;41676;44.610;44.078;2024-01-10T13:43:38;100462.22;;;-2.00;85.75
55757;BME280;41676;44.610;44.078;2024-01-10T13:48:40;100443.25;;;-2.18;84.22
55757;BME280;41676;44.610;44.078;2024-01-10T13:53:42;100460.63;;;-2.18;83.16
55757;BME280;41676;44.610;44.078;2024-01-10T13:58:42;100486.28;;;-2.28;83.13
55757;BME280;41676;44.610;44.078;2024-01-10T14:03:43;100444.50;;;-2.57;82.09
55757;BME280;41676;44.610;44.078;2024-01-10T14:08:44;100424.66;;;-2.75;80.47
55757;BME280;41676;44.610;44.078;2024-01-10T14:13:47;100430.03;;;-2.78;80.08
55757;BME280;41676;44.610;44.078;2024-01-10T14:18:48;100422.28;;;-2.95;80.76
55757;BME280;41676;44.610;44.078;2024-01-10T14:23:49;100468.25;;;-2.80;80.85
55757;BME280;41676;44.610;44.078;2024-01-10T14:28:50;100474.66;;;-2.87;80.11
55757;BME280;41676;44.610;44.078;2024-01-10T14:33:53;100524.88;;;-2.69;80.02
55757;BME280;41676;44.610;44.078;2024-01-10T14:38:54;100535.03;;;-2.81;80.20
55757;BME280;41676;44.610;44.078;2024-01-10T14:43:55;100556.19;;;-2.88;79.50
55757;BME280;41676;44.610;44.078;2024-01-10T14:48:57;100557.72;;;-3.02;79.79
55757;BME280;41676;44.610;44.078;2024-01-10T14:53:57;100573.47;;;-3.05;80.04
55757;BME280;41676;44.610;44.078;2024-01-10T14:58:58;100574.38;;;-3.06;80.14
55757;BME280;41676;44.610;44.078;2024-01-10T15:03:59;100576.13;;;-3.06;80.51
55757;BME280;41676;44.610;44.078;2024-01-10T15:09:00;100598.59;;;-3.05;80.81
55757;BME280;41676;44.610;44.078;2024-01-10T15:14:01;100603.22;;;-3.10;80.21
55757;BME280;41676;44.610;44.078;2024-01-10T15:19:02;100611.16;;;-3.13;80.46
55757;BME280;41676;44.610;44.078;2024-01-10T15:24:03;100613.28;;;-3.22;80.57
55757;BME280;41676;44.610;44.078;2024-01-10T15:29:04;100550.09;;;-3.77;80.21
55757;BME280;41676;44.610;44.078;2024-01-10T15:34:04;100627.28;;;-3.43;80.44
55757;BME280;41676;44.610;44.078;2024-01-10T15:39:06;100602.19;;;-3.61;80.67
55757;BME280;41676;44.610;44.078;2024-01-10T15:44:07;100577.53;;;-3.72;81.16
55757;BME280;41676;44.610;44.078;2024-01-10T15:49:11;100648.13;;;-3.26;80.70
55757;BME280;41676;44.610;44.078;2024-01-10T15:54:11;100651.41;;;-3.22;80.72
55757;BME280;41676;44.610;44.078;2024-01-10T15:59:12;100679.41;;;-3.10;80.93
55757;BME280;41676;44.610;44.078;2024-01-10T16:04:13;100646.28;;;-3.24;81.09
55757;BME280;41676;44.610;44.078;2024-01-10T16:09:14;100680.69;;;-3.18;80.91
55757;BME280;41676;44.610;44.078;2024-01-10T16:14:15;100670.38;;;-3.39;81.08
55757;BME280;41676;44.610;44.078;2024-01-10T16:19:15;100672.47;;;-3.47;80.20
55757;BME280;41676;44.610;44.078;2024-01-10T16:24:17;100650.91;;;-3.68;80.16
55757;BME280;41676;44.610;44.078;2024-01-10T16:29:17;100690.66;;;-3.47;79.06
55757;BME280;41676;44.610;44.078;2024-01-10T16:34:20;100714.94;;;-3.48;79.52
55757;BME280;41676;44.610;44.078;2024-01-10T16:39:20;100688.34;;;-3.72;78.69
55757;BME280;41676;44.610;44.078;2024-01-10T16:44:21;100705.19;;;-3.62;78.00
55757;BME280;41676;44.610;44.078;2024-01-10T16:49:22;100720.69;;;-3.60;76.32
55757;BME280;41676;44.610;44.078;2024-01-10T16:54:24;100730.03;;;-3.56;74.98
55757;BME280;41676;44.610;44.078;2024-01-10T16:59:25;100699.19;;;-3.83;73.59
55757;BME280;41676;44.610;44.078;2024-01-10T17:04:26;100748.88;;;-3.72;73.14
55757;BME280;41676;44.610;44.078;2024-01-10T17:09:26;100765.56;;;-3.77;73.59
55757;BME280;41676;44.610;44.078;2024-01-10T17:14:28;100785.88;;;-3.87;73.60
55757;BME280;41676;44.610;44.078;2024-01-10T17:19:29;100759.75;;;-4.23;74.65
55757;BME280;41676;44.610;44.078;2024-01-10T17:24:31;100789.56;;;-4.13;75.72
55757;BME280;41676;44.610;44.078;2024-01-10T17:29:33;100797.59;;;-4.40;77.60
55757;BME280;41676;44.610;44.078;2024-01-10T17:34:34;100805.66;;;-4.47;78.00
55757;BME280;41676;44.610;44.078;2024-01-10T17:39:35;100812.06;;;-4.56;78.78
55757;BME280;41676;44.610;44.078;2024-01-10T17:44:36;100807.91;;;-4.60;79.73
55757;BME280;41676;44.610;44.078;2024-01-10T17:49:37;100799.09;;;-4.78;80.27
55757;BME280;41676;44.610;44.078;2024-01-10T17:54:38;100832.28;;;-4.88;81.25
55757;BME280;41676;44.610;44.078;2024-01-10T17:59:39;100824.09;;;-5.22;82.43
55757;BME280;41676;44.610;44.078;2024-01-10T18:04:40;100840.63;;;-5.27;83.11
55757;BME280;41676;44.610;44.078;2024-01-10T18:09:41;100839.88;;;-5.30;83.85
55757;BME280;41676;44.610;44.078;2024-01-10T18:14:42;100845.59;;;-5.45;84.52
55757;BME280;41676;44.610;44.078;2024-01-10T18:19:44;100855.81;;;-5.41;85.70
55757;BME280;41676;44.610;44.078;2024-01-10T18:24:45;100846.03;;;-5.58;85.79
55757;BME280;41676;44.610;44.078;2024-01-10T18:29:46;100870.97;;;-5.55;86.48
55757;BME280;41676;44.610;44.078;2024-01-10T18:34:47;100878.78;;;-5.57;87.02
55757;BME280;41676;44.610;44.078;2024-01-10T18:39:47;100873.34;;;-5.49;86.70
55757;BME280;41676;44.610;44.078;2024-01-10T18:44:50;100863.00;;;-5.49;87.11
55757;BME280;41676;44.610;44.078;2024-01-10T18:49:51;100874.63;;;-5.61;87.16
55757;BME280;41676;44.610;44.078;2024-01-10T18:54:52;100875.72;;;-5.68;87.61
55757;BME280;41676;44.610;44.078;2024-01-10T18:59:53;100829.75;;;-5.86;87.82
55757;BME280;41676;44.610;44.078;2024-01-10T19:04:54;100887.22;;;-5.50;87.94
55757;BME280;41676;44.610;44.078;2024-01-10T19:09:54;100886.41;;;-5.52;88.31
55757;BME280;41676;44.610;44.078;2024-01-10T19:14:55;100872.66;;;-5.54;88.16
55757;BME280;41676;44.610;44.078;2024-01-10T19:19:56;100884.75;;;-5.55;88.98
55757;BME280;41676;44.610;44.078;2024-01-10T19:24:57;100891.22;;;-5.41;89.09
55757;BME280;41676;44.610;44.078;2024-01-10T19:29:58;100891.69;;;-5.30;89.31
55757;BME280;41676;44.610;44.078;2024-01-10T19:34:59;100877.97;;;-5.32;89.40
55757;BME280;41676;44.610;44.078;2024-01-10T19:39:59;100878.50;;;-5.24;89.38
55757;BME280;41676;44.610;44.078;2024-01-10T19:45:01;100883.75;;;-5.25;90.02
55757;BME280;41676;44.610;44.078;2024-01-10T19:50:01;100890.34;;;-5.17;89.80
55757;BME280;41676;44.610;44.078;2024-01-10T19:55:02;100884.38;;;-5.19;89.88
55757;BME280;41676;44.610;44.078;2024-01-10T20:00:04;100911.44;;;-5.02;90.34
55757;BME280;41676;44.610;44.078;2024-01-10T20:05:05;100843.75;;;-5.42;89.96
55757;BME280;41676;44.610;44.078;2024-01-10T20:10:06;100926.81;;;-4.98;90.23
55757;BME280;41676;44.610;44.078;2024-01-10T20:15:09;100913.34;;;-5.08;90.17
55757;BME280;41676;44.610;44.078;2024-01-10T20:20:10;100880.59;;;-5.34;90.58
55757;BME280;41676;44.610;44.078;2024-01-10T20:25:10;100919.69;;;-5.16;90.34
55757;BME280;41676;44.610;44.078;2024-01-10T20:30:11;100928.09;;;-5.10;90.94
55757;BME280;41676;44.610;44.078;2024-01-10T20:35:13;100962.13;;;-4.95;91.18
55757;BME280;41676;44.610;44.078;2024-01-10T20:40:14;100941.56;;;-5.00;90.99
55757;BME280;41676;44.610;44.078;2024-01-10T20:45:16;100957.47;;;-4.86;91.40
55757;BME280;41676;44.610;44.078;2024-01-10T20:50:19;100916.19;;;-5.15;91.41
55757;BME280;41676;44.610;44.078;2024-01-10T20:55:20;100983.06;;;-4.76;91.58
55757;BME280;41676;44.610;44.078;2024-01-10T21:00:21;100994.00;;;-4.68;92.01
55757;BME280;41676;44.610;44.078;2024-01-10T21:05:26;100980.13;;;-4.67;91.28
55757;BME280;41676;44.610;44.078;2024-01-10T21:10:27;100947.38;;;-4.93;91.51
55757;BME280;41676;44.610;44.078;2024-01-10T21:15:28;100992.31;;;-4.69;91.66
55757;BME280;41676;44.610;44.078;2024-01-10T21:20:28;100997.53;;;-4.71;91.94
55757;BME280;41676;44.610;44.078;2024-01-10T21:25:29;100950.59;;;-4.87;91.76
55757;BME280;41676;44.610;44.078;2024-01-10T21:30:30;100979.16;;;-4.65;92.04
55757;BME280;41676;44.610;44.078;2024-01-10T21:35:31;100952.13;;;-4.81;91.84
55757;BME280;41676;44.610;44.078;2024-01-10T21:40:32;101006.25;;;-4.48;92.43
55757;BME280;41676;44.610;44.078;2024-01-10T21:45:32;100996.09;;;-4.54;91.92
55757;BME280;41676;44.610;44.078;2024-01-10T21:50:33;100955.56;;;-4.80;92.41
55757;BME280;41676;44.610;44.078;2024-01-10T21:55:34;101022.25;;;-4.37;92.47
55757;BME280;41676;44.610;44.078;2024-01-10T22:00:35;101021.25;;;-4.33;92.53
55757;BME280;41676;44.610;44.078;2024-01-10T22:05:35;100942.41;;;-4.76;92.32
55757;BME280;41676;44.610;44.078;2024-01-10T22:10:36;101016.22;;;-4.38;92.31
55757;BME280;41676;44.610;44.078;2024-01-10T22:15:37;101023.03;;;-4.35;92.81
55757;BME280;41676;44.610;44.078;2024-01-10T22:20:38;101024.50;;;-4.28;93.15
55757;BME280;41676;44.610;44.078;2024-01-10T22:25:38;100987.53;;;-4.56;92.54
55757;BME280;41676;44.610;44.078;2024-01-10T22:30:39;101036.69;;;-4.30;92.88
55757;BME280;41676;44.610;44.078;2024-01-10T22:35:40;101048.88;;;-4.32;92.55
55757;BME280;41676;44.610;44.078;2024-01-10T22:40:40;101049.78;;;-4.33;92.53
55757;BME280;41676;44.610;44.078;2024-01-10T22:45:41;101044.59;;;-4.33;92.13
55757;BME280;41676;44.610;44.078;2024-01-10T22:50:42;101042.75;;;-4.31;92.17
55757;BME280;41676;44.610;44.078;2024-01-10T22:55:43;101014.41;;;-4.59;92.06
55757;BME280;41676;44.610;44.078;2024-01-10T23:00:44;101052.47;;;-4.36;92.23
55757;BME280;41676;44.610;44.078;2024-01-10T23:05:44;101044.00;;;-4.41;92.00
55757;BME280;41676;44.610;44.078;2024-01-10T23:10:45;101014.91;;;-4.49;92.33
55757;BME280;41676;44.610;44.078;2024-01-10T23:15:46;101020.78;;;-4.44;92.09
55757;BME280;41676;44.610;44.078;2024-01-10T23:20:47;101062.53;;;-4.27;91.67
55757;BME280;41676;44.610;44.078;2024-01-10T23:25:48;101073.38;;;-4.16;92.17
55757;BME280;41676;44.610;44.078;2024-01-10T23:30:49;101063.72;;;-4.12;92.31
55757;BME280;41676;44.610;44.078;2024-01-10T23:35:51;101073.91;;;-4.07;92.10
55757;BME280;41676;44.610;44.078;2024-01-10T23:40:52;100973.75;;;-4.59;92.06
55757;BME280;41676;44.610;44.078;2024-01-10T23:45:53;101067.84;;;-4.06;92.07
55757;BME280;41676;44.610;44.078;2024-01-10T23:50:55;101070.13;;;-3.99;91.88
55757;BME280;41676;44.610;44.078;2024-01-10T23:55:56;101062.34;;;-3.99;91.99
